New Boston, Ohio
Current Conditions -  °F | °C
As of 6:15 AM on Thursday 18 Dec 2014 (Local Time) from KDWU Reporting Station
Overcast Overcast  
Wind Chill: 28°   Ceiling: 2600
Heat Index: 28°   Visibility: 10mi
Dew Point: 18°   Wind: 3mph
Humidity: 64%   Direction: 20°NNE
Pressure: 30.27"   Gusts: NA
Location:  38.7891°N, 82.914°W
Report Text: KDWU 181115Z AUTO 02003KT 10SM OVC026 M02/M08 A3027 RMK AO1
Loading
Personal Weather Stations






























Interactive Weather Map New forecast layout! Learn more

10-Day Weather Forecast

Advertisements
Track Severe Weather on mobile